Flight Track Log - Related Links

Times and Time Zones

All times are in EDT time to prevent confusion due to time zone crossing. See the ASQ5230 flight status page for this flight to view local times or setup timezone preferences in your user account.

Time Position Orientation Groundspeed Altitude Reporting Facility
EDT Latitude Longitude Course Direction KTS MPH feet Rate Location/Type
Tue 06:51:23 AM 41.8075 -91.6478 162° South 238 274 4,100  Level Kansas City Center
Tue 06:52:21 AM 41.7231 -91.6378 175° South 270 311 7,300 2,975 Climbing Chicago Center
Tue 06:53:22 AM 41.6450 -91.6303 176° South 283 326 10,000 1,934 Climbing Chicago Center
Tue 06:54:22 AM 41.5611 -91.6197 175° South 301 346 11,200 1,388 Climbing Chicago Center
Tue 06:55:23 AM 41.4661 -91.5911 167° South 350 403 12,800 1,672 Climbing Chicago Center
Tue 06:56:00 AM 41.3485 -91.5282 162° South  Level FlightAware Approximate
Tue 06:56:24 AM 41.3711 -91.5483 161° South 361 415 14,600  Level Chicago Center
Tue 06:57:25 AM 41.2725 -91.5067 162° South 373 429 16,000 1,438 Climbing Chicago Center
Tue 06:58:25 AM 41.1750 -91.4639 162° South 383 441 17,500 1,339 Climbing Chicago Center
Tue 06:59:26 AM 41.0717 -91.4172 161° South 391 450 18,700 1,131 Climbing Chicago Center
Tue 07:00:27 AM 40.9525 -91.3664 162° South 401 461 19,800 1,082 Climbing Chicago Center
Tue 07:01:28 AM 40.8425 -91.3186 162° South 413 475 20,900 1,033 Climbing Chicago Center
Tue 07:02:29 AM 40.7247 -91.2661 161° South 416 479 21,900 1,041 Climbing Chicago Center
Tue 07:03:29 AM 40.6125 -91.2183 162° South 422 486 23,000 1,041 Climbing Chicago Center
Tue 07:04:30 AM 40.5003 -91.1703 162° South 424 488 24,000 984 Climbing Chicago Center
Tue 07:05:31 AM 40.3908 -91.1236 162° South 421 484 25,000 984 Climbing Chicago Center
Tue 07:06:32 AM 40.2950 -91.0411 147° Southeast 415 478 26,000 984 Climbing Chicago Center
Tue 07:07:33 AM 40.2025 -90.9517 144° Southeast 415 478 27,000 821 Climbing Chicago Center
Tue 07:08:29 AM 40.1083 -90.8622 144° Southeast 417 480 27,600 621 Climbing Kansas City Center
Tue 07:09:29 AM 40.0156 -90.7706 143° Southeast 419 482 28,200 595 Climbing Kansas City Center
Tue 07:10:30 AM 39.9228 -90.6808 143° Southeast 418 481 28,800 590 Climbing Kansas City Center
Tue 07:11:31 AM 39.8294 -90.5900 143° Southeast 419 482 29,400 545 Climbing Kansas City Center
Tue 07:12:31 AM 39.7311 -90.4961 144° Southeast 422 486 29,900 496 Climbing Kansas City Center
Tue 07:13:32 AM 39.6361 -90.4047 143° Southeast 424 488 30,400 496 Climbing Kansas City Center
Tue 07:14:32 AM 39.5403 -90.3128 143° Southeast 426 490 30,900 298 Climbing Kansas City Center
Tue 07:15:33 AM 39.4447 -90.2211 143° Southeast 428 493 31,000 50 Climbing Kansas City Center
Tue 07:16:33 AM 39.3469 -90.1267 143° Southeast 434 499 31,000  Level Kansas City Center
Tue 07:17:34 AM 39.2453 -90.0311 144° Southeast 445 512 31,000  Level Kansas City Center
Tue 07:18:35 AM 39.1369 -89.9294 144° Southeast 449 517 31,000  Level Kansas City Center
Tue 07:19:35 AM 39.0339 -89.8322 144° Southeast 458 527 31,000  Level Kansas City Center
Tue 07:20:36 AM 38.9303 -89.7361 144° Southeast 459 528 31,000  Level Kansas City Center
Tue 07:21:37 AM 38.8261 -89.6372 144° Southeast 464 534 31,000  Level Kansas City Center
Tue 07:22:37 AM 38.7214 -89.5408 144° Southeast 462 532 31,000  Level Kansas City Center
Tue 07:23:38 AM 38.6081 -89.4369 144° Southeast 464 534 31,000  Level Kansas City Center
Tue 07:24:39 AM 38.5031 -89.3394 144° Southeast 465 535 31,000  Level Kansas City Center
Tue 07:25:39 AM 38.3978 -89.2428 144° Southeast 466 536 31,000  Level Kansas City Center
Tue 07:26:40 AM 38.2919 -89.1464 144° Southeast 467 537 31,000  Level Kansas City Center
Tue 07:27:41 AM 38.1856 -89.0497 144° Southeast 469 540 31,000  Level Kansas City Center
Tue 07:28:42 AM 38.0906 -88.9653 145° Southeast 475 547 31,000  Level Kansas City Center
Tue 07:29:43 AM 37.9853 -88.8681 144° Southeast 472 543 31,000  Level Kansas City Center
Tue 07:30:43 AM 37.8781 -88.7731 145° Southeast 470 541 31,000  Level Kansas City Center
Tue 07:31:44 AM 37.7658 -88.6694 144° Southeast 463 533 31,000  Level Kansas City Center
Tue 07:32:45 AM 37.6597 -88.5744 145° Southeast 463 533 31,000  Level Kansas City Center
Tue 07:33:44 AM 37.5531 -88.4814 145° Southeast 470 541 31,000  Level Memphis Center
Tue 07:34:44 AM 37.4433 -88.3822 144° Southeast 475 547 31,000  Level Memphis Center
Tue 07:35:44 AM 37.3375 -88.2883 145° Southeast 475 547 31,000  Level Memphis Center
Tue 07:36:44 AM 37.2419 -88.1736 136° Southeast 475 547 31,000  Level Memphis Center
Tue 07:37:44 AM 37.1500 -88.0458 132° Southeast 475 547 31,000  Level Memphis Center
Tue 07:38:44 AM 37.0536 -87.9136 132° Southeast 482 555 31,000  Level Memphis Center
Tue 07:39:44 AM 36.9614 -87.7892 133° Southeast 482 555 31,000  Level Memphis Center
Tue 07:40:44 AM 36.8714 -87.6675 133° Southeast 477 549 31,000  Level Memphis Center
Tue 07:41:44 AM 36.7792 -87.5436 133° Southeast 477 549 31,000  Level Memphis Center
Tue 07:42:44 AM 36.6931 -87.4278 133° Southeast 477 549 31,000  Level Memphis Center
Tue 07:43:44 AM 36.6047 -87.3069 132° Southeast 472 543 31,000  Level Memphis Center
Tue 07:44:44 AM 36.5164 -87.1914 134° Southeast 467 537 31,000  Level Memphis Center
Tue 07:45:44 AM 36.4297 -87.0736 132° Southeast 467 537 31,000  Level Memphis Center
Tue 07:46:44 AM 36.3369 -86.9511 133° Southeast 472 543 31,000  Level Memphis Center
Tue 07:47:44 AM 36.2439 -86.8289 133° Southeast 478 550 31,000  Level Memphis Center
Tue 07:48:44 AM 36.1486 -86.7044 133° Southeast 490 564 31,000  Level Memphis Center
Tue 07:49:44 AM 36.0350 -86.6044 145° Southeast 484 557 31,000  Level Memphis Center
Tue 07:50:44 AM 35.9217 -86.5122 147° Southeast 497 572 31,000  Level Memphis Center
Tue 07:52:45 AM 35.6886 -86.3244 147° Southeast 510 587 31,000  Level Atlanta Center
Tue 07:53:45 AM 35.5778 -86.2347 147° Southeast 497 572 31,000  Level Atlanta Center
Tue 07:54:45 AM 35.4667 -86.1475 147° Southeast 483 556 31,000  Level Atlanta Center
Tue 07:55:45 AM 35.3492 -86.0528 147° Southeast 488 562 31,000  Level Atlanta Center
Tue 07:56:46 AM 35.2317 -85.9636 148° Southeast 493 567 31,000  Level Atlanta Center
Tue 07:57:46 AM 35.1225 -85.8722 146° Southeast 493 567 31,000  Level Atlanta Center
Tue 07:58:45 AM 35.0050 -85.7783 147° Southeast 493 567 31,000 -958 Level Atlanta Center
Tue 07:59:45 AM 34.8853 -85.6847 147° Southeast 493 567 29,100 -2,050 Descending Atlanta Center
Tue 08:00:45 AM 34.7653 -85.5914 147° Southeast 498 573 26,900 -2,200 Descending Atlanta Center
Tue 08:01:45 AM 34.6475 -85.5006 148° Southeast 498 573 24,700 -2,200 Descending Atlanta Center
Tue 08:02:45 AM 34.5358 -85.4106 146° Southeast 493 567 22,500 -2,200 Descending Atlanta Center
Tue 08:03:45 AM 34.4219 -85.3231 148° Southeast 488 562 20,300 -2,200 Descending Atlanta Center
Tue 08:04:45 AM 34.3206 -85.2436 147° Southeast 461 531 18,100 -2,250 Descending Atlanta Center
Tue 08:05:45 AM 34.2192 -85.1642 147° Southeast 447 514 15,800 -2,050 Descending Atlanta Center
Tue 08:06:45 AM 34.1342 -85.0803 141° Southeast 420 483 14,000 -900 Descending Atlanta Center
Tue 08:07:45 AM 34.0744 -85.0069 135° Southeast 374 430 14,000 -700 Level Atlanta Center
Tue 08:08:45 AM 34.0164 -84.9311 133° Southeast 321 369 12,600 -1,000 Descending Atlanta Center
Tue 08:09:45 AM 33.9564 -84.8578 135° Southeast 307 353 12,000 -300 Descending Atlanta Center
Tue 08:10:45 AM 33.8964 -84.7797 133° Southeast 307 353 12,000  Level Atlanta Center
Tue 08:11:46 AM 33.8364 -84.7067 135° Southeast 307 353 12,000  Level Atlanta Center
Tue 08:12:45 AM 33.7803 -84.6361 134° Southeast 293 337 12,000 -101 Level Atlanta Center
Tue 08:13:45 AM 33.7325 -84.5683 130° Southeast 275 316 11,800 -850 Descending Atlanta Center
Tue 08:14:45 AM 33.7289 -84.4833 93° East 248 285 10,300 -1,590 Descending Atlanta Center
Tue 08:15:42 AM 33.7333 -84.4000 86° East 257 296 8,700 -1,622 Descending Atlanta TRACON
Tue 08:16:36 AM 33.7333 -84.3167 90° East 243 280 7,300 -1,526 Descending Atlanta TRACON
Tue 08:17:36 AM 33.7333 -84.2333 90° East 232 267 5,800 -1,211 Descending Atlanta TRACON
Tue 08:18:30 AM 33.7333 -84.1667 90° East 222 255 5,000 -421 Descending Atlanta TRACON
Tue 08:19:30 AM 33.7333 -84.1000 90° East 223 257 5,000  Level Atlanta TRACON
Tue 08:20:25 AM 33.7333 -84.0333 90° East 220 253 5,000  Level Atlanta TRACON
Tue 08:21:24 AM 33.6833 -84.0000 151° Southeast 233 268 5,000  Level Atlanta TRACON
Tue 08:22:19 AM 33.6500 -84.0500 231° Southwest 219 252 5,000  Level Atlanta TRACON
Tue 08:23:19 AM 33.6500 -84.1167 270° West 183 211 5,000  Level Atlanta TRACON
Tue 08:24:19 AM 33.6500 -84.1667 270° West 185 213 5,000 -526 Level Atlanta TRACON
Tue 08:25:13 AM 33.6500 -84.2333 270° West 183 211 4,000 -1,000 Descending Atlanta TRACON
Tue 08:26:13 AM 33.6500 -84.2833 270° West 167 192 3,100 -850 Descending Atlanta TRACON
Tue 08:27:13 AM 33.6500 -84.3333 270° West 142 163 2,300 -750 Descending Atlanta TRACON
Tue 08:28:13 AM 33.6500 -84.3833 270° West 132 152 1,600 -700 Descending Atlanta TRACON
Tue 08:30:00 AM 33.6333 -84.4167 265° West  Level FlightAware Approximate

Login

Don't have an account? Register now (free) for customized features, flight alerts, and more!